Time;durP1;ratioP1;P1;durP2;ratioP2;P2;SDS_P1;SDS_P2;PMS_P1;PMS_P2;Temp;Humidity;BMP_temperature;BMP_pressure;BME280_temperature;BME280_humidity;BME280_pressure;Samples;Min_cycle;Max_cycle;Signal;HPM_P1;HPM_P2
2023/04/12 00:00:26;;;;;;;8.32;4.25;;;;;;;;;;5024133;28;20084;-81
2023/04/12 00:02:53;;;;;;;7.93;4.22;;;;;;;;;;5025150;28;20750;-82
2023/04/12 00:05:29;;;;;;;10.00;3.65;;;;;;;;;;5012642;28;20041;-82
2023/04/12 00:07:59;;;;;;;7.47;3.80;;;;;;;;;;5036869;28;20052;-81
2023/04/12 00:10:27;;;;;;;9.55;3.92;;;;;;;;;;5035793;28;20074;-81
2023/04/12 00:12:59;;;;;;;9.23;4.00;;;;;;;;;;5029164;28;20049;-81
2023/04/12 00:15:51;;;;;;;7.57;3.58;;;;;;;;;;5034443;28;20037;-81
2023/04/12 00:18:23;;;;;;;7.85;3.90;;;;;;;;;;5031117;28;20044;-82
2023/04/12 00:20:51;;;;;;;13.13;3.90;;;;;;;;;;5034527;28;20037;-81
2023/04/12 00:23:23;;;;;;;10.75;4.25;;;;;;;;;;5030260;28;20052;-82
2023/04/12 00:26:00;;;;;;;7.57;3.40;;;;;;;;;;5033085;28;20667;-81
2023/04/12 00:28:29;;;;;;;9.77;3.70;;;;;;;;;;5030273;28;20048;-82
2023/04/12 00:31:01;;;;;;;6.20;3.28;;;;;;;;;;5035634;28;20045;-81
2023/04/12 00:33:53;;;;;;;8.38;3.50;;;;;;;;;;5034504;28;20044;-82
2023/04/12 00:36:21;;;;;;;6.43;3.15;;;;;;;;;;5046213;28;20092;-82
2023/04/12 00:38:49;;;;;;;6.97;3.28;;;;;;;;;;5030704;28;20114;-81
2023/04/12 00:41:41;;;;;;;9.02;3.60;;;;;;;;;;5023226;28;20482;-82
2023/04/12 00:44:16;;;;;;;8.80;3.30;;;;;;;;;;5039431;28;20103;-81
2023/04/12 00:46:45;;;;;;;6.63;3.05;;;;;;;;;;5035985;28;20045;-82
2023/04/12 00:49:40;;;;;;;10.15;2.97;;;;;;;;;;5027208;28;20964;-82
2023/04/12 00:52:13;;;;;;;6.88;2.80;;;;;;;;;;5024388;28;20056;-81
2023/04/12 00:54:42;;;;;;;8.35;3.17;;;;;;;;;;5024021;28;20136;-81
2023/04/12 00:57:11;;;;;;;8.05;3.38;;;;;;;;;;5023061;28;20479;-81
2023/04/12 00:59:39;;;;;;;9.55;3.20;;;;;;;;;;5018623;28;20052;-82
2023/04/12 01:02:11;;;;;;;6.65;3.15;;;;;;;;;;5037242;28;20049;-82
2023/04/12 01:04:42;;;;;;;9.77;2.88;;;;;;;;;;5029946;28;20049;-82
2023/04/12 01:07:28;;;;;;;8.75;3.28;;;;;;;;;;5031401;28;20043;-82
2023/04/12 01:10:03;;;;;;;8.13;2.83;;;;;;;;;;5030309;28;20032;-82
2023/04/12 01:12:45;;;;;;;6.80;2.85;;;;;;;;;;5035267;28;20041;-82
2023/04/12 01:15:15;;;;;;;7.53;3.38;;;;;;;;;;5043195;28;20045;-82
2023/04/12 01:17:56;;;;;;;8.30;3.13;;;;;;;;;;5030068;28;20833;-82
2023/04/12 01:20:32;;;;;;;5.60;3.22;;;;;;;;;;5031438;28;20439;-81
2023/04/12 01:23:13;;;;;;;7.25;3.00;;;;;;;;;;5031486;28;20558;-82
2023/04/12 01:25:47;;;;;;;7.40;3.28;;;;;;;;;;5032790;28;20395;-82
2023/04/12 01:28:21;;;;;;;7.22;3.10;;;;;;;;;;5033855;28;20072;-82
2023/04/12 01:31:14;;;;;;;7.95;2.88;;;;;;;;;;5032264;28;20156;-82
2023/04/12 01:33:44;;;;;;;8.70;3.80;;;;;;;;;;5035106;28;20051;-82
2023/04/12 01:36:16;;;;;;;6.00;2.83;;;;;;;;;;5035572;28;20043;-82
2023/04/12 01:38:50;;;;;;;6.18;3.00;;;;;;;;;;5031250;28;20045;-82
2023/04/12 01:41:23;;;;;;;5.45;2.10;;;;;;;;;;5049360;28;20588;-82
2023/04/12 01:43:51;;;;;;;7.80;2.50;;;;;;;;;;5034629;28;20105;-82
2023/04/12 01:46:21;;;;;;;6.72;2.40;;;;;;;;;;5030120;28;20041;-82
2023/04/12 01:48:51;;;;;;;7.05;2.60;;;;;;;;;;5028743;28;20053;-82
2023/04/12 01:52:11;;;;;;;5.78;2.50;;;;;;;;;;5032086;28;20036;-82
2023/04/12 01:55:06;;;;;;;3.88;2.00;;;;;;;;;;5031433;28;20041;-82
2023/04/12 01:57:34;;;;;;;5.70;2.28;;;;;;;;;;5021768;28;20053;-82
2023/04/12 02:00:05;;;;;;;8.45;2.65;;;;;;;;;;5047742;28;21365;-81
2023/04/12 02:02:39;;;;;;;5.95;2.17;;;;;;;;;;5033861;28;20874;-81
2023/04/12 02:05:08;;;;;;;5.10;2.10;;;;;;;;;;5017195;28;20049;-82
2023/04/12 02:07:39;;;;;;;9.15;2.42;;;;;;;;;;5045963;28;20059;-82
2023/04/12 02:10:12;;;;;;;6.30;2.53;;;;;;;;;;5033133;28;20461;-82
2023/04/12 02:12:40;;;;;;;10.13;2.42;;;;;;;;;;5047451;28;20080;-82
2023/04/12 02:15:07;;;;;;;8.07;2.47;;;;;;;;;;5032773;28;20072;-82
2023/04/12 02:17:36;;;;;;;4.47;2.03;;;;;;;;;;5031681;28;20573;-82
2023/04/12 02:20:08;;;;;;;6.53;2.25;;;;;;;;;;5015205;28;20108;-82
2023/04/12 02:22:35;;;;;;;3.95;2.00;;;;;;;;;;5018544;28;20045;-82
2023/04/12 02:25:07;;;;;;;5.32;1.90;;;;;;;;;;5047535;28;20539;-81
2023/04/12 02:27:47;;;;;;;6.30;2.25;;;;;;;;;;5048847;28;20499;-82
2023/04/12 02:30:15;;;;;;;7.63;1.83;;;;;;;;;;5004314;28;20124;-81
2023/04/12 02:32:47;;;;;;;6.18;2.10;;;;;;;;;;5036145;28;20049;-82
2023/04/12 02:35:30;;;;;;;5.53;2.00;;;;;;;;;;5035896;28;20048;-82
2023/04/12 02:38:07;;;;;;;6.10;1.70;;;;;;;;;;5040425;28;20041;-82
2023/04/12 02:40:41;;;;;;;4.28;1.88;;;;;;;;;;5035398;28;20405;-82
2023/04/12 02:43:13;;;;;;;8.82;2.13;;;;;;;;;;5052645;28;20053;-82
2023/04/12 02:45:46;;;;;;;8.52;2.05;;;;;;;;;;5033702;28;20495;-82
2023/04/12 02:48:19;;;;;;;6.63;1.92;;;;;;;;;;5002588;28;20048;-82
2023/04/12 02:50:53;;;;;;;6.22;2.08;;;;;;;;;;5016123;28;20075;-81
2023/04/12 02:53:23;;;;;;;4.43;1.92;;;;;;;;;;5050324;28;20048;-82
2023/04/12 02:56:14;;;;;;;8.18;1.80;;;;;;;;;;5015751;28;20045;-81
2023/04/12 02:58:43;;;;;;;4.82;1.67;;;;;;;;;;5035035;28;20041;-81
2023/04/12 03:01:15;;;;;;;5.70;2.20;;;;;;;;;;5034038;28;20044;-82
2023/04/12 03:04:03;;;;;;;7.00;2.15;;;;;;;;;;5035818;28;20041;-82
2023/04/12 03:09:41;;;;;;;3.63;1.60;;;;;;;;;;5036365;28;20083;-82
2023/04/12 03:12:15;;;;;;;5.43;2.10;;;;;;;;;;5033333;28;20485;-81
2023/04/12 03:14:55;;;;;;;5.35;1.92;;;;;;;;;;5035404;28;20136;-81
2023/04/12 03:17:27;;;;;;;8.35;1.90;;;;;;;;;;5032702;28;20533;-82
2023/04/12 03:19:57;;;;;;;11.10;2.28;;;;;;;;;;5034976;28;20048;-82
2023/04/12 03:22:57;;;;;;;2.90;1.35;;;;;;;;;;5035373;28;20037;-82
2023/04/12 03:25:26;;;;;;;9.85;2.20;;;;;;;;;;5034556;28;21056;-82
2023/04/12 03:27:57;;;;;;;6.72;2.05;;;;;;;;;;5019346;28;20040;-82
2023/04/12 03:30:50;;;;;;;7.13;1.77;;;;;;;;;;5019310;28;20041;-81
2023/04/12 03:33:21;;;;;;;5.03;1.70;;;;;;;;;;5050590;28;20038;-81
2023/04/12 03:35:51;;;;;;;6.80;2.10;;;;;;;;;;5048680;28;20148;-82
2023/04/12 03:38:19;;;;;;;6.72;1.55;;;;;;;;;;5033705;28;20149;-82
2023/04/12 03:41:11;;;;;;;6.00;2.20;;;;;;;;;;5030879;28;20128;-82
2023/04/12 03:43:41;;;;;;;5.55;1.50;;;;;;;;;;5032437;28;20143;-81
2023/04/12 03:46:17;;;;;;;8.38;1.77;;;;;;;;;;5029229;28;20123;-82
2023/04/12 03:49:10;;;;;;;5.60;2.53;;;;;;;;;;5028239;28;20040;-82
2023/04/12 03:51:42;;;;;;;7.35;2.33;;;;;;;;;;5018046;28;20799;-81
2023/04/12 03:54:17;;;;;;;8.77;2.28;;;;;;;;;;5019302;28;20053;-82
2023/04/12 03:56:57;;;;;;;4.78;1.85;;;;;;;;;;5031749;28;20128;-82
2023/04/12 03:59:51;;;;;;;3.88;1.52;;;;;;;;;;5035318;28;20041;-82
2023/04/12 04:03:03;;;;;;;2.92;1.50;;;;;;;;;;5033765;28;20156;-82
2023/04/12 04:05:37;;;;;;;5.70;1.88;;;;;;;;;;5020605;28;20038;-82
2023/04/12 04:08:31;;;;;;;2.45;1.55;;;;;;;;;;5030872;28;20179;-82
2023/04/12 04:10:59;;;;;;;4.95;1.67;;;;;;;;;;5028020;28;20502;-82
2023/04/12 04:13:33;;;;;;;9.98;1.90;;;;;;;;;;5031353;28;20780;-82
2023/04/12 04:16:06;;;;;;;3.58;1.50;;;;;;;;;;5023206;28;20115;-81
2023/04/12 04:18:34;;;;;;;1.85;0.80;;;;;;;;;;5029900;28;20117;-82
2023/04/12 04:21:03;;;;;;;5.85;2.15;;;;;;;;;;5046632;28;20053;-82
2023/04/12 04:23:37;;;;;;;4.53;1.60;;;;;;;;;;5027620;28;20034;-82
2023/04/12 04:26:37;;;;;;;5.07;1.60;;;;;;;;;;5022569;28;20175;-82
2023/04/12 04:29:15;;;;;;;4.25;1.60;;;;;;;;;;5029617;28;20403;-82
2023/04/12 04:32:08;;;;;;;5.70;1.80;;;;;;;;;;5029634;28;20041;-82
2023/04/12 04:35:02;;;;;;;3.53;1.60;;;;;;;;;;5019551;28;20521;-82
2023/04/12 04:37:51;;;;;;;9.32;1.60;;;;;;;;;;5032246;28;20415;-82
2023/04/12 04:40:31;;;;;;;2.72;1.20;;;;;;;;;;5023695;28;20395;-82
2023/04/12 04:42:59;;;;;;;5.65;2.08;;;;;;;;;;5015215;28;20638;-82
2023/04/12 04:45:42;;;;;;;2.47;1.23;;;;;;;;;;5044750;28;20041;-82
2023/04/12 04:48:09;;;;;;;6.47;1.83;;;;;;;;;;5029941;28;20041;-82
2023/04/12 04:50:46;;;;;;;7.88;1.80;;;;;;;;;;5031455;28;20080;-82
2023/04/12 04:53:47;;;;;;;4.40;1.95;;;;;;;;;;5009801;28;20578;-82
2023/04/12 04:56:17;;;;;;;3.60;1.50;;;;;;;;;;5029236;28;20045;-82
2023/04/12 04:58:51;;;;;;;5.50;1.60;;;;;;;;;;5017968;28;20128;-82
2023/04/12 05:01:28;;;;;;;4.68;2.05;;;;;;;;;;5009118;28;20057;-82
2023/04/12 05:03:57;;;;;;;7.03;2.15;;;;;;;;;;5020901;28;20495;-82
2023/04/12 05:06:27;;;;;;;8.20;1.80;;;;;;;;;;5026802;28;20045;-82
2023/04/12 05:08:57;;;;;;;5.25;2.17;;;;;;;;;;5027619;28;20188;-82
2023/04/12 05:11:26;;;;;;;4.30;1.70;;;;;;;;;;5015599;28;20487;-82
2023/04/12 05:13:54;;;;;;;4.25;1.80;;;;;;;;;;5032739;28;20045;-83
2023/04/12 05:16:27;;;;;;;6.20;2.30;;;;;;;;;;5037376;28;20055;-83
2023/04/12 05:19:14;;;;;;;3.50;1.60;;;;;;;;;;5044997;28;20044;-83
2023/04/12 05:21:41;;;;;;;5.85;1.77;;;;;;;;;;5029905;28;20041;-83
2023/04/12 05:25:01;;;;;;;6.13;2.15;;;;;;;;;;5047589;28;20104;-83
2023/04/12 05:27:44;;;;;;;4.55;2.00;;;;;;;;;;4988458;28;20064;-83
2023/04/12 05:30:15;;;;;;;4.20;1.88;;;;;;;;;;4987181;28;20508;-82
2023/04/12 05:32:46;;;;;;;1.60;0.90;;;;;;;;;;4982666;28;20054;-81
2023/04/12 05:35:15;;;;;;;6.80;1.77;;;;;;;;;;4979744;28;20112;-81
2023/04/12 05:37:43;;;;;;;6.93;2.40;;;;;;;;;;5001921;28;20599;-81
2023/04/12 05:40:13;;;;;;;5.75;1.63;;;;;;;;;;4969401;28;20038;-83
2023/04/12 05:42:49;;;;;;;3.38;1.50;;;;;;;;;;4982063;28;20127;-83
2023/04/12 05:45:17;;;;;;;4.20;1.85;;;;;;;;;;4989438;28;20046;-82
2023/04/12 05:47:45;;;;;;;4.03;1.90;;;;;;;;;;4984693;28;20050;-81
2023/04/12 05:50:13;;;;;;;3.40;1.70;;;;;;;;;;4988258;28;20419;-81
2023/04/12 05:52:41;;;;;;;3.72;1.67;;;;;;;;;;4989304;28;20046;-82
2023/04/12 05:55:09;;;;;;;10.00;1.92;;;;;;;;;;5004890;28;20043;-82
2023/04/12 05:57:39;;;;;;;3.75;1.70;;;;;;;;;;4991124;28;20058;-81
2023/04/12 06:00:12;;;;;;;3.33;1.90;;;;;;;;;;4983953;28;20045;-81
2023/04/12 06:02:44;;;;;;;2.65;1.50;;;;;;;;;;5004676;28;20053;-81
2023/04/12 06:05:37;;;;;;;4.05;1.63;;;;;;;;;;5035880;28;20038;-80
2023/04/12 06:08:11;;;;;;;3.45;1.58;;;;;;;;;;5034225;28;20056;-80
2023/04/12 06:10:41;;;;;;;5.70;1.73;;;;;;;;;;5022393;28;20049;-80
2023/04/12 06:13:35;;;;;;;4.40;1.58;;;;;;;;;;5030138;28;20040;-81
2023/04/12 06:16:04;;;;;;;5.47;1.95;;;;;;;;;;5043969;28;20140;-81
2023/04/12 06:18:32;;;;;;;5.57;1.90;;;;;;;;;;5034288;28;20568;-80
2023/04/12 06:21:05;;;;;;;5.15;1.85;;;;;;;;;;5034089;28;20033;-80
2023/04/12 06:23:39;;;;;;;5.38;2.53;;;;;;;;;;5053478;28;20057;-81
2023/04/12 06:26:08;;;;;;;4.80;1.65;;;;;;;;;;5041313;28;20466;-80
2023/04/12 06:28:43;;;;;;;4.10;2.20;;;;;;;;;;5021941;28;20053;-81
2023/04/12 06:31:11;;;;;;;5.20;2.20;;;;;;;;;;5032509;28;20069;-80
2023/04/12 06:33:46;;;;;;;6.70;2.10;;;;;;;;;;5022942;28;20123;-81
2023/04/12 06:36:14;;;;;;;3.15;1.52;;;;;;;;;;5036430;28;20523;-80
2023/04/12 06:38:49;;;;;;;2.92;1.58;;;;;;;;;;5038937;28;20140;-81
2023/04/12 06:41:17;;;;;;;6.75;1.95;;;;;;;;;;5025074;28;20037;-81
2023/04/12 06:43:45;;;;;;;5.22;1.95;;;;;;;;;;5037901;28;20477;-81
2023/04/12 06:46:17;;;;;;;4.75;1.95;;;;;;;;;;5037323;28;20069;-81
2023/04/12 06:48:49;;;;;;;7.50;2.33;;;;;;;;;;5035586;28;20041;-80
2023/04/12 06:51:41;;;;;;;4.28;1.45;;;;;;;;;;5038286;28;20164;-80
2023/04/12 06:54:13;;;;;;;7.25;2.08;;;;;;;;;;5038622;28;20037;-81
2023/04/12 06:56:46;;;;;;;3.03;1.60;;;;;;;;;;5038576;28;20045;-81
2023/04/12 06:59:13;;;;;;;7.60;1.48;;;;;;;;;;5039138;28;20084;-81
2023/04/12 07:02:07;;;;;;;3.17;1.60;;;;;;;;;;5032586;28;20037;-80
2023/04/12 07:04:37;;;;;;;13.00;2.20;;;;;;;;;;5036299;28;20040;-81
2023/04/12 07:07:09;;;;;;;4.85;1.70;;;;;;;;;;5040233;28;20049;-80
2023/04/12 07:10:03;;;;;;;8.20;2.70;;;;;;;;;;5038379;28;20098;-81
2023/04/12 07:12:35;;;;;;;4.53;1.75;;;;;;;;;;5036225;28;20033;-81
2023/04/12 07:15:04;;;;;;;4.35;1.73;;;;;;;;;;5036056;28;20220;-81
2023/04/12 07:17:31;;;;;;;3.92;1.60;;;;;;;;;;5049412;28;20064;-81
2023/04/12 07:20:04;;;;;;;6.40;1.88;;;;;;;;;;5032665;28;20072;-81
2023/04/12 07:22:31;;;;;;;3.60;1.80;;;;;;;;;;5051195;28;20132;-81
2023/04/12 07:24:59;;;;;;;4.93;1.60;;;;;;;;;;5038164;28;20482;-81
2023/04/12 07:27:27;;;;;;;4.10;1.50;;;;;;;;;;5035240;28;20060;-81
2023/04/12 07:29:57;;;;;;;5.07;1.50;;;;;;;;;;5037143;28;20041;-81
2023/04/12 07:32:26;;;;;;;5.05;2.08;;;;;;;;;;5032746;28;20041;-81
2023/04/12 07:34:59;;;;;;;3.80;1.48;;;;;;;;;;5035268;28;20052;-81
2023/04/12 07:37:27;;;;;;;3.85;1.88;;;;;;;;;;5038563;28;20136;-81
2023/04/12 07:39:57;;;;;;;3.83;1.80;;;;;;;;;;5037931;28;20037;-81
2023/04/12 07:42:29;;;;;;;5.85;2.28;;;;;;;;;;5033921;28;20558;-81
2023/04/12 07:45:02;;;;;;;6.50;1.80;;;;;;;;;;5038575;28;20053;-81
2023/04/12 07:47:29;;;;;;;4.63;1.90;;;;;;;;;;5030903;28;20042;-81
2023/04/12 07:49:57;;;;;;;8.18;1.55;;;;;;;;;;5036279;28;20033;-81
2023/04/12 07:52:26;;;;;;;5.57;1.60;;;;;;;;;;5036050;28;20083;-81
2023/04/12 07:55:43;;;;;;;4.60;1.80;;;;;;;;;;5037981;28;20041;-81
2023/04/12 07:58:11;;;;;;;6.97;1.90;;;;;;;;;;5050756;28;20396;-81
2023/04/12 08:01:01;;;;;;;5.03;1.83;;;;;;;;;;5037144;28;20158;-81
2023/04/12 08:03:29;;;;;;;5.55;2.00;;;;;;;;;;5028585;28;20037;-81
2023/04/12 08:05:57;;;;;;;6.60;1.92;;;;;;;;;;5033831;28;20124;-81
2023/04/12 08:08:25;;;;;;;6.28;1.90;;;;;;;;;;5047630;28;20107;-81
2023/04/12 08:11:01;;;;;;;6.55;1.92;;;;;;;;;;5034598;28;20934;-81
2023/04/12 08:13:34;;;;;;;7.75;2.30;;;;;;;;;;5033919;28;20547;-81
2023/04/12 08:16:01;;;;;;;3.85;1.48;;;;;;;;;;5029510;28;20093;-81
2023/04/12 08:18:55;;;;;;;10.40;2.05;;;;;;;;;;5034901;28;20043;-81
2023/04/12 08:21:52;;;;;;;8.93;1.92;;;;;;;;;;5033650;28;20037;-80
2023/04/12 08:24:19;;;;;;;4.35;1.70;;;;;;;;;;5033892;28;20049;-81
2023/04/12 08:27:13;;;;;;;5.25;1.77;;;;;;;;;;5036088;28;20109;-81
2023/04/12 08:29:41;;;;;;;7.82;2.05;;;;;;;;;;5036310;28;20661;-81
2023/04/12 08:32:11;;;;;;;4.03;1.80;;;;;;;;;;5032072;28;20108;-80
2023/04/12 08:35:04;;;;;;;5.50;2.00;;;;;;;;;;5036408;28;20114;-81
2023/04/12 08:37:37;;;;;;;6.00;2.00;;;;;;;;;;5034565;28;20036;-81
2023/04/12 08:40:11;;;;;;;3.60;1.88;;;;;;;;;;5034385;28;20041;-81
2023/04/12 08:42:43;;;;;;;4.72;1.88;;;;;;;;;;5030511;28;20120;-81
2023/04/12 08:45:12;;;;;;;4.80;1.90;;;;;;;;;;5047121;28;20434;-81
2023/04/12 08:47:41;;;;;;;4.57;1.65;;;;;;;;;;5031766;28;20037;-81
2023/04/12 08:50:12;;;;;;;6.43;2.20;;;;;;;;;;5035768;28;20033;-81
2023/04/12 08:53:08;;;;;;;5.38;1.90;;;;;;;;;;5036641;28;20047;-81
2023/04/12 08:55:37;;;;;;;4.32;1.67;;;;;;;;;;5046464;28;20060;-81
2023/04/12 08:58:08;;;;;;;3.13;1.40;;;;;;;;;;5033591;28;20045;-81
2023/04/12 09:00:36;;;;;;;3.50;1.70;;;;;;;;;;5028661;28;20041;-81
2023/04/12 09:03:30;;;;;;;5.53;1.50;;;;;;;;;;5034131;28;20095;-81
2023/04/12 09:06:04;;;;;;;5.88;1.88;;;;;;;;;;5034589;28;20038;-80
2023/04/12 09:08:51;;;;;;;4.05;1.73;;;;;;;;;;5031019;28;20040;-81
2023/04/12 09:11:25;;;;;;;5.07;1.70;;;;;;;;;;5045650;28;20207;-81
2023/04/12 09:13:54;;;;;;;5.57;1.50;;;;;;;;;;5037519;28;20042;-81
2023/04/12 09:16:35;;;;;;;5.35;1.48;;;;;;;;;;5032806;28;20049;-81
2023/04/12 09:19:04;;;;;;;6.03;2.00;;;;;;;;;;5034490;28;20041;-81
2023/04/12 09:21:38;;;;;;;5.97;1.63;;;;;;;;;;5036236;28;20487;-81
2023/04/12 09:24:12;;;;;;;5.35;1.83;;;;;;;;;;5034023;28;20044;-81
2023/04/12 09:26:41;;;;;;;5.18;1.60;;;;;;;;;;5032008;28;20037;-81
2023/04/12 09:29:26;;;;;;;6.18;1.75;;;;;;;;;;5032714;28;20056;-81
2023/04/12 09:32:06;;;;;;;6.28;1.80;;;;;;;;;;5032462;28;20041;-81
2023/04/12 09:34:55;;;;;;;3.78;1.30;;;;;;;;;;5032845;28;20041;-81
2023/04/12 09:37:30;;;;;;;4.20;1.50;;;;;;;;;;5047384;28;20203;-81
2023/04/12 09:40:11;;;;;;;5.90;2.15;;;;;;;;;;5037471;28;20037;-80
2023/04/12 09:42:52;;;;;;;4.93;1.52;;;;;;;;;;5040211;28;20107;-81
2023/04/12 09:45:26;;;;;;;3.67;1.75;;;;;;;;;;5022526;28;20118;-81
2023/04/12 09:47:59;;;;;;;4.32;1.42;;;;;;;;;;5035942;28;20041;-81
2023/04/12 09:50:29;;;;;;;3.13;1.20;;;;;;;;;;5039899;28;20808;-81
2023/04/12 09:52:59;;;;;;;5.20;1.58;;;;;;;;;;5037527;28;20042;-81
2023/04/12 09:55:30;;;;;;;3.65;1.48;;;;;;;;;;5038533;28;20127;-81
2023/04/12 09:58:03;;;;;;;3.80;1.65;;;;;;;;;;5037116;28;20498;-81
2023/04/12 10:00:36;;;;;;;4.00;1.48;;;;;;;;;;5037033;28;20037;-81
2023/04/12 10:03:11;;;;;;;4.88;1.42;;;;;;;;;;5038157;28;20039;-81
2023/04/12 10:05:41;;;;;;;4.25;1.75;;;;;;;;;;5036072;28;20037;-81
2023/04/12 10:08:14;;;;;;;10.27;1.80;;;;;;;;;;5036849;28;20381;-81
2023/04/12 10:10:48;;;;;;;6.80;1.70;;;;;;;;;;5024593;28;20063;-81
2023/04/12 10:13:43;;;;;;;3.70;1.63;;;;;;;;;;5036964;28;20124;-81
2023/04/12 10:16:12;;;;;;;3.70;1.40;;;;;;;;;;5035376;28;20489;-81
2023/04/12 10:18:39;;;;;;;7.00;1.52;;;;;;;;;;5051940;28;20041;-81
2023/04/12 10:21:33;;;;;;;4.88;1.15;;;;;;;;;;4963985;28;20142;-81
2023/04/12 10:24:01;;;;;;;5.60;1.77;;;;;;;;;;4976150;28;20054;-81
2023/04/12 10:26:30;;;;;;;6.40;1.70;;;;;;;;;;4970679;28;20051;-81
2023/04/12 10:29:24;;;;;;;5.20;1.40;;;;;;;;;;4975519;28;20057;-81
2023/04/12 10:32:20;;;;;;;3.92;1.30;;;;;;;;;;4958138;28;20133;-81
2023/04/12 10:34:57;;;;;;;4.63;1.40;;;;;;;;;;4946139;28;20716;-81
2023/04/12 10:38:00;;;;;;;4.95;1.35;;;;;;;;;;4941689;28;20053;-81
2023/04/12 10:40:31;;;;;;;2.78;1.40;;;;;;;;;;4970562;28;20054;-81
2023/04/12 10:43:17;;;;;;;4.47;1.85;;;;;;;;;;4973578;28;20561;-81
2023/04/12 10:45:45;;;;;;;3.00;1.40;;;;;;;;;;4972330;28;20090;-81
2023/04/12 10:48:31;;;;;;;4.78;1.60;;;;;;;;;;4974633;28;20054;-81
2023/04/12 10:51:26;;;;;;;4.90;1.65;;;;;;;;;;4972469;28;20046;-81
2023/04/12 10:54:06;;;;;;;6.72;1.80;;;;;;;;;;4943542;28;20051;-81
2023/04/12 10:56:35;;;;;;;5.05;1.52;;;;;;;;;;4974986;28;20133;-81
2023/04/12 10:59:10;;;;;;;6.85;1.70;;;;;;;;;;5011653;28;20522;-81
2023/04/12 11:02:08;;;;;;;4.30;1.45;;;;;;;;;;5048807;28;20065;-81
2023/04/12 11:04:37;;;;;;;6.43;1.45;;;;;;;;;;5036616;28;20072;-81
2023/04/12 11:07:11;;;;;;;4.85;1.60;;;;;;;;;;5051263;28;20064;-81
2023/04/12 11:09:42;;;;;;;3.83;1.58;;;;;;;;;;5019582;28;20038;-81
2023/04/12 11:12:37;;;;;;;5.88;1.60;;;;;;;;;;5047231;28;20114;-81
2023/04/12 11:15:06;;;;;;;4.32;1.70;;;;;;;;;;5035990;28;20099;-81
2023/04/12 11:18:00;;;;;;;4.35;2.13;;;;;;;;;;5031012;28;20151;-81
2023/04/12 11:20:27;;;;;;;8.13;1.77;;;;;;;;;;5035655;28;20492;-81
2023/04/12 11:23:02;;;;;;;5.03;1.88;;;;;;;;;;5023702;28;20035;-82
2023/04/12 11:25:30;;;;;;;4.93;1.90;;;;;;;;;;5037378;28;20040;-81
2023/04/12 11:28:24;;;;;;;5.78;1.98;;;;;;;;;;5039627;28;20180;-81
2023/04/12 11:31:19;;;;;;;5.22;1.83;;;;;;;;;;5023329;28;20032;-82
2023/04/12 11:33:47;;;;;;;6.35;2.08;;;;;;;;;;5037519;28;20041;-81
2023/04/12 11:36:16;;;;;;;6.85;2.50;;;;;;;;;;5038684;28;20041;-81
2023/04/12 11:38:50;;;;;;;4.63;2.25;;;;;;;;;;5049371;28;20049;-82
2023/04/12 11:41:17;;;;;;;9.93;1.90;;;;;;;;;;5039040;28;20492;-82
2023/04/12 11:44:09;;;;;;;5.68;2.20;;;;;;;;;;5033167;28;20041;-81
2023/04/12 11:47:03;;;;;;;8.20;2.45;;;;;;;;;;5049085;28;20037;-81
2023/04/12 11:49:31;;;;;;;6.82;2.30;;;;;;;;;;5036521;28;20034;-81
2023/04/12 11:52:03;;;;;;;7.32;2.55;;;;;;;;;;5035950;28;20041;-81
2023/04/12 11:54:33;;;;;;;6.30;2.63;;;;;;;;;;5038432;28;20133;-82
2023/04/12 11:57:01;;;;;;;7.60;3.00;;;;;;;;;;5021633;28;20106;-82
2023/04/12 11:59:32;;;;;;;7.85;2.55;;;;;;;;;;5033886;28;20049;-81
2023/04/12 12:02:01;;;;;;;7.57;2.65;;;;;;;;;;5029364;28;20137;-82
2023/04/12 12:04:49;;;;;;;8.50;2.75;;;;;;;;;;5051082;28;20100;-81
2023/04/12 12:07:18;;;;;;;6.65;2.85;;;;;;;;;;5035983;28;20114;-82
2023/04/12 12:09:45;;;;;;;6.13;3.00;;;;;;;;;;5035791;28;20048;-81
2023/04/12 12:12:13;;;;;;;8.35;3.20;;;;;;;;;;5034183;28;20033;-81
2023/04/12 12:15:06;;;;;;;7.22;2.75;;;;;;;;;;5037964;28;20086;-82
2023/04/12 12:17:39;;;;;;;7.80;2.95;;;;;;;;;;5032126;28;20045;-81
2023/04/12 12:20:19;;;;;;;7.03;3.25;;;;;;;;;;5029406;28;20148;-82
2023/04/12 12:25:45;;;;;;;10.73;2.90;;;;;;;;;;5037719;28;20041;-82
2023/04/12 12:28:13;;;;;;;10.00;3.40;;;;;;;;;;5033641;28;20041;-82
2023/04/12 12:30:41;;;;;;;8.65;3.10;;;;;;;;;;5032745;28;20506;-82
2023/04/12 12:33:38;;;;;;;4.95;2.90;;;;;;;;;;5027020;28;20037;-82
2023/04/12 12:36:19;;;;;;;8.57;3.60;;;;;;;;;;5032068;28;20041;-82
2023/04/12 12:38:51;;;;;;;8.30;2.95;;;;;;;;;;5018958;28;20475;-82
2023/04/12 12:41:53;;;;;;;8.95;3.00;;;;;;;;;;5031839;28;20045;-82
2023/04/12 12:44:22;;;;;;;5.88;2.97;;;;;;;;;;5032742;28;20049;-81
2023/04/12 12:46:49;;;;;;;10.25;3.28;;;;;;;;;;5028524;28;20483;-82
2023/04/12 12:49:29;;;;;;;7.97;3.13;;;;;;;;;;5033207;28;20052;-82
2023/04/12 12:51:57;;;;;;;6.05;2.83;;;;;;;;;;5032192;28;20056;-82
2023/04/12 12:54:29;;;;;;;7.40;3.20;;;;;;;;;;5032282;28;20041;-82
2023/04/12 12:57:07;;;;;;;8.18;3.42;;;;;;;;;;5030938;28;20064;-82
2023/04/12 13:00:00;;;;;;;7.75;3.28;;;;;;;;;;5032782;28;20048;-82
2023/04/12 13:02:27;;;;;;;8.05;3.63;;;;;;;;;;5024769;28;20128;-81
2023/04/12 13:04:56;;;;;;;6.93;2.50;;;;;;;;;;5025867;28;20128;-82
2023/04/12 13:07:23;;;;;;;8.60;3.13;;;;;;;;;;5032086;28;20064;-81
2023/04/12 13:09:51;;;;;;;6.40;2.58;;;;;;;;;;5028865;28;20450;-81
2023/04/12 13:12:23;;;;;;;7.07;2.50;;;;;;;;;;5031082;28;20160;-81
2023/04/12 13:14:52;;;;;;;8.27;2.58;;;;;;;;;;5029128;28;20052;-82
2023/04/12 13:17:40;;;;;;;4.57;1.98;;;;;;;;;;5028825;28;20038;-82
2023/04/12 13:20:08;;;;;;;4.88;2.30;;;;;;;;;;5033763;28;20037;-81
2023/04/12 13:22:35;;;;;;;5.25;2.17;;;;;;;;;;5031010;28;20067;-82
2023/04/12 13:25:03;;;;;;;6.50;2.15;;;;;;;;;;5025322;28;20056;-82
2023/04/12 13:27:36;;;;;;;3.70;1.92;;;;;;;;;;5015269;28;20045;-82
2023/04/12 13:30:04;;;;;;;7.25;2.40;;;;;;;;;;5031377;28;20050;-81
2023/04/12 13:32:31;;;;;;;3.95;1.75;;;;;;;;;;5029521;28;20105;-81
2023/04/12 13:35:05;;;;;;;3.65;1.80;;;;;;;;;;5028836;28;20061;-82
2023/04/12 13:37:33;;;;;;;3.42;1.55;;;;;;;;;;5031236;28;20041;-81
2023/04/12 13:40:02;;;;;;;4.18;1.90;;;;;;;;;;5033585;28;20050;-82
2023/04/12 13:42:29;;;;;;;8.07;2.00;;;;;;;;;;5027739;28;20044;-81
2023/04/12 13:44:57;;;;;;;4.45;2.17;;;;;;;;;;5035187;28;20064;-82
2023/04/12 13:47:26;;;;;;;4.55;1.90;;;;;;;;;;5029351;28;20128;-82
2023/04/12 13:50:17;;;;;;;4.05;1.60;;;;;;;;;;5034893;28;20055;-82
2023/04/12 13:52:45;;;;;;;5.75;2.60;;;;;;;;;;5030255;28;20061;-82
2023/04/12 13:55:13;;;;;;;3.33;1.70;;;;;;;;;;5020308;28;20079;-82
2023/04/12 13:57:42;;;;;;;4.25;1.42;;;;;;;;;;5048609;28;20391;-82
2023/04/12 14:00:10;;;;;;;4.30;1.65;;;;;;;;;;5032586;28;20072;-82
2023/04/12 14:02:37;;;;;;;4.65;1.52;;;;;;;;;;5044254;28;20065;-82
2023/04/12 14:05:05;;;;;;;4.72;1.67;;;;;;;;;;5032158;28;20495;-82
2023/04/12 14:07:46;;;;;;;5.15;1.67;;;;;;;;;;5029364;28;20048;-82
2023/04/12 14:10:13;;;;;;;4.53;1.90;;;;;;;;;;5032697;28;20037;-82
2023/04/12 14:12:45;;;;;;;4.32;1.70;;;;;;;;;;5036100;28;20460;-82
2023/04/12 14:15:13;;;;;;;5.28;1.88;;;;;;;;;;5036875;28;20045;-82
2023/04/12 14:17:41;;;;;;;5.82;2.00;;;;;;;;;;5035371;28;20072;-83
2023/04/12 14:20:09;;;;;;;3.60;1.88;;;;;;;;;;5037307;28;20118;-82
2023/04/12 14:22:37;;;;;;;4.95;1.95;;;;;;;;;;5034474;28;20120;-82
2023/04/12 14:25:06;;;;;;;4.10;1.50;;;;;;;;;;5037503;28;20098;-82
2023/04/12 14:27:34;;;;;;;5.70;2.00;;;;;;;;;;5039016;28;20050;-82
2023/04/12 14:30:02;;;;;;;6.18;2.10;;;;;;;;;;5035978;28;20041;-82
2023/04/12 14:32:29;;;;;;;4.15;1.70;;;;;;;;;;5040068;28;20064;-82
2023/04/12 14:35:21;;;;;;;4.57;2.00;;;;;;;;;;5036573;28;20881;-83
2023/04/12 14:37:49;;;;;;;6.47;2.10;;;;;;;;;;5039575;28;20044;-83
2023/04/12 14:40:22;;;;;;;5.88;1.98;;;;;;;;;;5056079;28;20063;-83
2023/04/12 14:42:49;;;;;;;4.75;1.58;;;;;;;;;;5052324;28;20048;-84
2023/04/12 14:45:19;;;;;;;5.40;1.90;;;;;;;;;;5058372;28;20033;-83
2023/04/12 14:47:47;;;;;;;7.90;1.85;;;;;;;;;;5052875;28;20041;-82
2023/04/12 14:50:33;;;;;;;8.00;2.17;;;;;;;;;;5037606;28;20041;-84
2023/04/12 14:53:09;;;;;;;5.00;2.35;;;;;;;;;;5021585;28;20037;-83
2023/04/12 14:55:37;;;;;;;5.72;2.20;;;;;;;;;;5031812;28;20038;-82
2023/04/12 14:58:09;;;;;;;5.72;2.30;;;;;;;;;;5037338;28;20040;-83
2023/04/12 15:01:01;;;;;;;5.43;2.83;;;;;;;;;;5034409;28;20408;-82
2023/04/12 15:03:32;;;;;;;9.02;2.60;;;;;;;;;;5034197;28;20037;-83
2023/04/12 15:05:59;;;;;;;5.93;1.90;;;;;;;;;;5039829;28;20277;-82
2023/04/12 15:08:28;;;;;;;3.90;1.58;;;;;;;;;;5038331;28;20091;-83
2023/04/12 15:11:00;;;;;;;5.97;1.90;;;;;;;;;;5031613;28;20045;-82
2023/04/12 15:13:27;;;;;;;4.82;2.30;;;;;;;;;;5035981;28;20033;-82
2023/04/12 15:16:01;;;;;;;8.55;3.50;;;;;;;;;;5037114;28;22868;-83
2023/04/12 15:18:29;;;;;;;5.82;1.98;;;;;;;;;;5039515;28;20136;-82
2023/04/12 15:20:59;;;;;;;4.00;1.80;;;;;;;;;;5039942;28;20033;-82
2023/04/12 15:23:27;;;;;;;7.00;2.50;;;;;;;;;;5040631;28;20041;-82
2023/04/12 15:26:01;;;;;;;3.97;2.10;;;;;;;;;;5040211;28;20047;-82
2023/04/12 15:28:30;;;;;;;3.97;1.95;;;;;;;;;;5037811;28;20037;-82
2023/04/12 15:31:03;;;;;;;6.53;3.10;;;;;;;;;;5036717;28;20136;-82
2023/04/12 15:33:49;;;;;;;5.18;3.10;;;;;;;;;;5037097;28;20033;-82
2023/04/12 15:36:44;;;;;;;5.80;2.88;;;;;;;;;;5038002;28;20036;-82